Latest Weather Observations for Clermont Airport

IDQ60801

Issued at 8:32 am EST Monday 29 August 2016 (issued every 30 minutes, with the page automatically refreshed every 10 minutes)

About weather observations | Map of weather stations | Latest weather observations for QLD | Other Formats
Station Details ID: 035124 Name: CLERMONT AIRPORT Lat: -22.78 Lon: 147.62 Height: 270.27 m
Data from the previous 72 hours. | See also: Recent months at Clermont Airport
Date/Time
EST
Temp
°C
App
Temp
°C
Dew
Point
°C
Rel
Hum
%
Delta-T
°C
Wind Press
QNH
hPa
Press
MSL
hPa
Rain since
9am
mm
Dir  Spd
km/h
Gust
km/h
Spd
kts
Gust
kts
29/08:30am 13.2 11.6 8.1 71 2.5 SSE 6 9 3 5 1024.9 1024.4 0.0
29/08:00am 10.9 9.0 7.4 79 1.7 S 7 11 4 6 1024.7 1024.2 0.0
29/07:30am 7.0 5.9 5.3 89 0.8 CALM 0 0 0 0 1024.3 1023.8 0.0
29/07:00am 4.9 3.6 3.9 93 0.4 CALM 0 0 0 0 1024.1 1023.6 0.0
29/06:30am 3.2 1.6 2.2 93 0.4 CALM 0 0 0 0 1023.6 1023.1 0.0
29/06:00am - - - - - WSW 4 4 2 2 1023.2 1022.7 0.0
29/05:30am 2.9 1.2 1.7 92 0.5 CALM 0 2 0 1 1022.6 1022.1 0.0
29/05:00am 3.3 1.3 2.1 92 0.5 SW 2 2 1 1 1022.3 1021.8 0.0
29/04:30am 3.6 1.2 2.3 91 0.5 W 4 4 2 2 1022.0 1021.4 0.0
29/04:00am 3.9 2.3 2.6 91 0.5 CALM 0 0 0 0 1021.6 1021.1 0.0
29/03:30am 4.0 2.4 2.5 90 0.6 CALM 0 0 0 0 1021.7 1021.2 0.0
29/03:00am 4.4 2.9 2.9 90 0.6 CALM 0 0 0 0 1022.1 1021.5 0.0
29/02:30am 4.5 2.6 2.8 89 0.7 SW 2 4 1 2 1022.2 1021.7 0.0
29/02:00am 5.2 3.8 3.4 88 0.8 CALM 0 0 0 0 1022.4 1021.9 0.0
29/01:30am 5.4 4.0 3.4 87 0.8 CALM 0 0 0 0 1022.6 1022.1 0.0
29/01:00am 5.8 4.4 3.5 85 1.0 CALM 0 0 0 0 1022.6 1022.1 0.0
29/12:30am 6.4 5.1 3.9 84 1.1 CALM 0 0 0 0 1022.4 1021.9 0.0
29/12:00am 7.0 5.7 4.0 81 1.3 CALM 0 0 0 0 1022.2 1021.7 0.0
 
Date/Time
EST
Temp
°C
App
Temp
°C
Dew
Point
°C
Rel
Hum
%
Delta-T
°C
Wind Press
QNH
hPa
Press
MSL
hPa
Rain since
9am
mm
Dir  Spd
km/h
Gust
km/h
Spd
kts
Gust
kts
28/11:30pm 6.9 5.7 4.4 84 1.1 CALM 0 0 0 0 1022.1 1021.5 0.0
28/11:00pm 7.8 6.6 4.6 80 1.4 CALM 0 0 0 0 1022.2 1021.7 0.0
28/10:30pm 8.2 7.0 4.6 78 1.6 CALM 0 0 0 0 1022.4 1021.9 0.0
28/10:00pm 9.2 7.9 4.0 70 2.3 CALM 0 0 0 0 1022.3 1021.8 0.0
28/09:30pm 9.0 7.9 5.0 76 1.8 CALM 0 0 0 0 1022.3 1021.8 0.0
28/09:00pm 10.2 9.0 4.4 67 2.6 CALM 0 0 0 0 1022.2 1021.7 0.0
28/08:30pm 11.8 10.4 3.6 57 3.7 CALM 0 0 0 0 1022.2 1021.7 0.0
28/08:00pm 13.6 12.2 3.7 51 4.5 CALM 0 0 0 0 1022.0 1021.4 0.0
28/07:30pm 14.2 12.2 2.5 45 5.3 E 2 4 1 2 1021.6 1021.1 0.0
28/07:00pm 16.2 14.1 1.9 38 6.4 ESE 2 6 1 3 1021.4 1020.9 0.0
28/06:30pm 18.0 15.9 1.5 33 7.5 ESE 2 4 1 2 1021.1 1020.6 0.0
28/06:00pm 19.7 17.1 0.7 28 8.6 ESE 4 6 2 3 1020.8 1020.3 0.0
28/05:30pm 21.3 18.3 0.5 25 9.5 E 6 11 3 6 1020.6 1020.1 0.0
28/05:00pm 22.2 19.0 0.7 24 9.9 ENE 7 11 4 6 1020.5 1020.0 0.0
28/04:30pm 22.6 18.7 1.0 24 10.1 ESE 11 22 6 12 1020.3 1019.8 0.0
28/04:00pm 22.8 18.8 0.6 23 10.3 ENE 11 22 6 12 1020.1 1019.6 0.0
28/03:30pm 22.5 19.3 0.9 24 10.1 ESE 7 15 4 8 1020.1 1019.6 0.0
28/03:00pm 22.3 18.3 0.8 24 9.9 ESE 11 20 6 11 1020.2 1019.7 0.0
28/02:30pm 22.0 18.4 0.5 24 9.9 E 9 19 5 10 1020.5 1020.0 0.0
28/02:00pm 22.0 18.0 0.5 24 9.9 ENE 11 19 6 10 1021.0 1020.5 0.0
28/01:30pm 21.5 17.4 2.2 28 9.1 SE 13 20 7 11 1021.5 1021.0 0.0
28/01:00pm 20.9 17.7 0.7 26 9.2 E 7 17 4 9 1022.2 1021.7 0.0
28/12:30pm 20.0 16.5 1.0 28 8.7 ENE 9 20 5 11 1022.7 1022.2 0.0
28/12:00pm 19.2 15.2 0.3 28 8.4 ESE 11 22 6 12 1023.3 1022.8 0.0
28/11:30am 19.7 16.1 3.0 33 7.9 ESE 11 17 6 9 1023.8 1023.3 0.0
28/11:00am 18.4 15.0 3.8 38 6.9 ESE 11 19 6 10 1024.4 1023.9 0.0
28/10:30am 17.2 14.1 3.5 40 6.4 ESE 9 15 5 8 1024.9 1024.4 0.0
28/10:00am 16.6 13.7 4.6 45 5.7 ESE 9 20 5 11 1025.1 1024.6 0.0
28/09:30am 14.4 11.8 4.4 51 4.7 ESE 7 15 4 8 1025.2 1024.7 0.0
28/09:00am 12.8 10.2 4.0 55 4.0 E 7 13 4 7 1025.3 1024.9 0.0
28/08:30am 10.8 9.2 4.7 66 2.8 SE 2 7 1 4 1025.2 1024.7 0.0
28/08:00am 8.4 6.3 3.8 73 2.0 SSE 4 7 2 4 1025.0 1024.5 0.0
28/07:30am 5.5 3.9 4.3 92 0.5 SW 2 4 1 2 1024.8 1024.3 0.0
28/07:00am 2.9 1.2 1.9 93 0.4 CALM 0 0 0 0 1024.3 1023.8 0.0
28/06:30am 2.0 0.2 1.0 93 0.4 CALM 0 0 0 0 1023.7 1023.2 0.0
28/06:00am 2.0 0.2 1.0 93 0.4 CALM 0 0 0 0 1023.7 1023.2 0.0
28/05:30am 2.1 0.3 1.1 93 0.4 CALM 0 0 0 0 1023.2 1022.7 0.0
28/05:00am 2.4 0.6 1.2 92 0.5 CALM 0 0 0 0 1023.1 1022.6 0.0
28/04:30am 2.5 0.7 1.3 92 0.5 CALM 0 0 0 0 1022.8 1022.3 0.0
28/04:00am 3.2 1.5 2.0 92 0.5 CALM 0 0 0 0 1022.6 1022.1 0.0
28/03:30am 3.0 1.3 1.7 91 0.5 CALM 0 0 0 0 1022.7 1022.2 0.0
28/03:00am 3.2 1.5 2.0 92 0.5 CALM 0 2 0 1 1022.6 1022.1 0.0
28/02:30am 3.5 1.1 2.3 92 0.5 SW 4 6 2 3 1022.6 1022.1 0.0
28/02:00am 3.5 1.9 2.3 92 0.5 CALM 0 0 0 0 1023.0 1022.5 0.0
28/01:30am 3.9 2.3 2.6 91 0.5 CALM 0 0 0 0 1023.1 1022.6 0.0
28/01:00am 4.5 3.0 3.0 90 0.6 CALM 0 0 0 0 1023.1 1022.6 0.0
28/12:30am 4.6 3.1 2.8 88 0.7 CALM 0 0 0 0 1023.3 1022.8 0.0
28/12:00am 4.8 3.3 2.8 87 0.8 CALM 0 0 0 0 1023.2 1022.7 0.0
 
Date/Time
EST
Temp
°C
App
Temp
°C
Dew
Point
°C
Rel
Hum
%
Delta-T
°C
Wind Press
QNH
hPa
Press
MSL
hPa
Rain since
9am
mm
Dir  Spd
km/h
Gust
km/h
Spd
kts
Gust
kts
27/11:30pm 5.4 3.2 3.3 86 0.9 SW 4 4 2 2 1023.0 1022.5 0.0
27/11:00pm 5.8 4.0 3.5 85 1.0 SW 2 4 1 2 1023.1 1022.6 0.0
27/10:30pm 6.5 5.2 4.2 85 1.0 CALM 0 4 0 2 1023.2 1022.7 0.0
27/10:00pm 7.2 6.0 4.7 84 1.1 CALM 0 0 0 0 1023.3 1022.8 0.0
27/09:30pm 7.5 6.3 4.5 81 1.3 CALM 0 0 0 0 1023.4 1022.9 0.0
27/09:00pm 8.2 6.9 3.9 74 1.9 CALM 0 0 0 0 1023.2 1022.7 0.0
27/08:30pm 11.2 9.8 3.3 58 3.5 CALM 0 0 0 0 1022.8 1022.3 0.0
27/08:00pm 12.1 10.6 2.8 53 4.1 CALM 0 0 0 0 1022.6 1022.1 0.0
27/07:30pm 12.3 9.9 1.9 49 4.5 ESE 4 6 2 3 1022.1 1021.5 0.0
27/07:00pm 12.1 10.4 3.9 57 3.7 ESE 2 4 1 2 1021.7 1021.2 0.0
27/06:30pm 15.9 13.2 0.5 35 6.7 SSE 4 6 2 3 1021.4 1020.9 0.0
27/06:00pm 16.9 14.1 -0.3 31 7.4 SSE 4 6 2 3 1021.0 1020.5 0.0
27/05:30pm 18.1 14.9 -0.2 29 8.0 S 6 9 3 5 1020.9 1020.4 0.0
27/05:00pm 18.6 14.7 -1.3 26 8.6 SE 9 15 5 8 1020.5 1020.0 0.0
27/04:30pm 19.2 15.2 0.3 28 8.5 SSW 11 15 6 8 1020.2 1019.7 0.0
27/04:00pm 19.0 15.0 0.6 29 8.2 SE 11 19 6 10 1020.2 1019.7 0.0
27/03:30pm 18.9 15.9 0.5 29 8.3 SSE 6 13 3 7 1020.3 1019.8 0.0
27/03:00pm 19.4 15.8 0.9 29 8.4 S 9 17 5 9 1020.6 1020.1 0.0
27/02:30pm 18.6 15.6 0.7 30 8.0 SW 6 20 3 11 1020.8 1020.3 0.0
27/02:00pm 18.8 14.9 1.3 31 7.9 SSE 11 20 6 11 1021.3 1020.8 0.0
27/01:30pm 18.2 14.2 0.8 31 7.8 S 11 26 6 14 1021.7 1021.2 0.0
27/01:00pm 18.0 13.8 1.5 33 7.5 SSW 13 22 7 12 1022.1 1021.5 0.0
27/12:30pm 16.9 12.7 1.4 35 7.0 SSW 13 26 7 14 1022.6 1022.1 0.0
27/12:00pm 16.2 11.4 -0.1 33 7.0 SSW 15 26 8 14 1023.1 1022.6 0.0
27/11:30am 16.2 12.7 3.3 42 6.0 SE 11 20 6 11 1023.5 1023.0 0.0
27/11:00am 15.1 11.0 2.3 42 5.7 SSE 13 22 7 12 1024.1 1023.6 0.0
27/10:30am 14.7 10.3 2.6 44 5.5 SE 15 20 8 11 1024.3 1023.8 0.0
27/10:00am 13.8 9.0 2.4 46 5.1 SSE 17 22 9 12 1024.7 1024.2 0.0
27/09:30am 13.2 9.0 3.6 52 4.4 SE 15 22 8 12 1024.9 1024.4 0.0
27/09:00am 12.4 9.0 3.9 56 3.9 SE 11 19 6 10 1024.8 1024.3 0.0
27/08:30am 10.8 8.3 4.0 63 3.1 SE 6 11 3 6 1024.6 1024.1 0.0
27/08:00am 9.7 8.1 4.7 71 2.3 ENE 2 6 1 3 1024.3 1023.8 0.0
27/07:30am 7.0 6.1 5.9 93 0.5 CALM 0 0 0 0 1024.0 1023.5 0.0
27/07:00am 4.5 3.1 3.6 94 0.4 CALM 0 0 0 0 1023.8 1023.3 0.0
27/06:30am 3.3 1.7 2.3 93 0.4 CALM 0 0 0 0 1023.4 1022.9 0.0
27/06:00am 3.5 1.9 2.5 93 0.4 CALM 0 0 0 0 1022.9 1022.4 0.0
27/05:30am 3.9 2.4 2.9 93 0.4 CALM 0 0 0 0 1022.5 1022.0 0.0
27/05:00am 4.0 2.5 3.0 93 0.4 CALM 0 0 0 0 1022.2 1021.7 0.0
27/04:30am 4.3 2.8 3.1 92 0.5 CALM 0 0 0 0 1022.0 1021.4 0.0
27/04:00am 4.8 3.4 3.5 91 0.5 CALM 0 0 0 0 1021.7 1021.2 0.0
27/03:30am 5.0 3.6 3.7 91 0.6 CALM 0 0 0 0 1021.3 1020.8 0.0
27/03:00am 5.1 3.7 3.6 90 0.6 CALM 0 0 0 0 1021.3 1020.8 0.0
27/02:30am 5.7 4.4 3.9 88 0.8 CALM 0 0 0 0 1021.3 1020.8 0.0
27/02:00am 6.4 5.3 4.9 90 0.7 CALM 0 0 0 0 1021.3 1020.8 0.0
27/01:30am 5.9 4.7 4.5 91 0.6 CALM 0 0 0 0 1021.5 1021.0 0.0
27/01:00am 6.5 5.3 4.7 88 0.8 CALM 0 0 0 0 1021.8 1021.3 0.0
27/12:30am 7.5 6.5 5.5 87 0.9 CALM 0 0 0 0 1021.8 1021.3 0.0
27/12:00am 7.8 6.8 5.8 87 0.9 CALM 0 0 0 0 1021.5 1021.0 0.0
 
Date/Time
EST
Temp
°C
App
Temp
°C
Dew
Point
°C
Rel
Hum
%
Delta-T
°C
Wind Press
QNH
hPa
Press
MSL
hPa
Rain since
9am
mm
Dir  Spd
km/h
Gust
km/h
Spd
kts
Gust
kts
26/11:30pm 8.1 7.1 5.6 84 1.1 CALM 0 2 0 1 1021.3 1020.8 0.0
26/11:00pm 9.8 8.1 5.8 76 1.9 S 4 4 2 2 1021.3 1020.8 0.0
26/10:30pm 9.0 7.3 5.9 81 1.4 SSW 4 6 2 3 1021.3 1020.8 0.0
26/10:00pm 9.0 6.8 6.4 84 1.2 WSW 7 9 4 5 1021.0 1020.5 0.0
26/09:30pm 10.7 9.1 6.5 75 2.0 S 4 4 2 2 1020.9 1020.4 0.0
26/09:00pm 11.0 9.7 6.2 72 2.3 SSW 2 6 1 3 1020.8 1020.3 0.0
26/08:30pm 12.3 9.7 5.9 65 3.0 SSW 9 13 5 7 1020.6 1020.1 0.0
26/08:00pm 11.7 10.2 7.0 73 2.3 SSW 4 6 2 3 1020.3 1019.8 0.0
26/07:30pm 12.5 11.1 7.2 70 2.6 SSW 4 6 2 3 1019.9 1019.4 0.0
26/07:00pm 13.8 12.2 6.2 60 3.7 SSW 4 6 2 3 1019.3 1018.8 0.0
26/06:30pm 15.8 14.3 5.1 49 5.1 S 2 4 1 2 1018.8 1018.2 0.0
26/06:00pm 16.7 14.5 5.3 47 5.5 S 6 6 3 3 1018.4 1017.8 0.0
26/05:30pm 18.2 15.6 4.4 40 6.7 S 7 15 4 8 1017.9 1017.4 0.0
26/05:00pm 18.9 16.2 3.9 37 7.2 S 7 13 4 7 1017.6 1017.1 0.0
26/04:30pm 19.0 15.2 4.0 37 7.2 SSW 13 22 7 12 1017.4 1016.9 0.0
26/04:00pm 19.0 15.7 4.4 38 7.1 SSE 11 15 6 8 1017.1 1016.6 0.0
26/03:30pm 17.9 13.5 4.5 41 6.5 S 17 26 9 14 1017.2 1016.7 0.0
26/03:00pm 18.6 15.4 5.1 41 6.6 SSE 11 17 6 9 1017.2 1016.7 0.0
26/02:30pm 19.4 16.5 4.4 37 7.3 S 9 20 5 11 1017.2 1016.7 0.0
26/02:00pm 18.6 14.9 4.4 39 6.9 S 13 19 7 10 1017.5 1017.0 0.0
26/01:30pm 19.2 16.4 5.3 40 6.9 SW 9 17 5 9 1017.7 1017.2 0.0
26/01:00pm 17.4 14.0 4.0 41 6.4 SSE 11 24 6 13 1018.2 1017.6 0.0
26/12:30pm 18.0 15.1 4.9 42 6.4 S 9 15 5 8 1018.6 1018.0 0.0
26/12:00pm 17.4 14.3 5.7 46 5.7 SSE 11 17 6 9 1019.0 1018.5 0.0
26/11:30am 17.5 14.2 6.4 48 5.5 S 13 19 7 10 1019.1 1018.6 0.0
26/11:00am 15.9 11.9 4.9 48 5.3 SSE 15 22 8 12 1019.5 1019.0 0.0
26/10:30am 15.2 10.9 5.1 51 4.8 SSE 17 24 9 13 1019.7 1019.2 0.0
26/10:00am 14.8 10.1 5.1 52 4.6 SSE 19 30 10 16 1019.9 1019.4 0.0
26/09:30am 14.4 10.2 5.5 55 4.3 S 17 24 9 13 1019.8 1019.3 0.0
26/09:00am 13.9 10.4 5.5 57 4.0 SSE 13 22 7 12 1019.9 1019.4 0.0

Other Formats:

Comma delimited format used in spreadsheet applications
http://www.bom.gov.au/fwo/IDQ60801/IDQ60801.94395.axf

JavaScript Object Notation format (JSON) in row-major order
http://www.bom.gov.au/fwo/IDQ60801/IDQ60801.94395.json